createdAt,value
2022-07-25T00:02:28.120Z,430.00
2022-07-25T00:04:59.794Z,429.67
2022-07-25T00:07:31.409Z,428.87
2022-07-25T00:10:03.848Z,428.93
2022-07-25T00:12:38.357Z,429.37
2022-07-25T00:15:11.184Z,427.60
2022-07-25T00:17:42.965Z,428.17
2022-07-25T00:20:16.783Z,427.20
2022-07-25T00:22:48.394Z,430.03
2022-07-25T00:25:20.034Z,427.10
2022-07-25T00:27:51.972Z,429.63
2022-07-25T00:30:23.594Z,429.07
2022-07-25T00:32:55.187Z,426.17
2022-07-25T00:35:26.798Z,428.07
2022-07-25T00:37:58.518Z,426.83
2022-07-25T00:40:30.232Z,429.07
2022-07-25T00:43:02.227Z,428.30
2022-07-25T00:45:33.922Z,428.43
2022-07-25T00:48:05.777Z,427.40
2022-07-25T00:50:37.448Z,427.00
2022-07-25T00:53:09.866Z,427.07
2022-07-25T00:55:44.864Z,426.97
2022-07-25T00:58:16.627Z,431.67
2022-07-25T01:00:48.398Z,426.93
2022-07-25T01:03:20.147Z,426.67
2022-07-25T01:05:53.959Z,428.03
2022-07-25T01:08:26.063Z,427.15
2022-07-25T01:10:58.408Z,423.90
2022-07-25T01:13:34.195Z,427.97
2022-07-25T01:16:06.409Z,424.60
2022-07-25T01:18:38.471Z,428.73
2022-07-25T01:21:10.473Z,425.13
2022-07-25T01:23:42.207Z,427.23
2022-07-25T01:26:13.832Z,426.03
2022-07-25T01:28:45.431Z,426.73
2022-07-25T01:31:19.792Z,426.07
2022-07-25T01:36:23.034Z,426.17
2022-07-25T01:38:57.544Z,426.97
2022-07-25T01:41:29.273Z,426.70
2022-07-25T01:44:00.858Z,426.17
2022-07-25T01:46:32.575Z,425.13
2022-07-25T01:49:04.951Z,425.67
2022-07-25T01:51:36.723Z,424.23
2022-07-25T01:54:10.339Z,425.57
2022-07-25T01:56:48.403Z,420.67
2022-07-25T01:59:20.451Z,423.83
2022-07-25T02:01:52.268Z,424.23
2022-07-25T02:04:23.960Z,422.97
2022-07-25T02:06:57.967Z,422.70
2022-07-25T02:09:29.647Z,423.48
2022-07-25T02:12:01.224Z,423.47
2022-07-25T02:14:33.626Z,422.20
2022-07-25T02:17:05.362Z,424.17
2022-07-25T02:19:37.635Z,424.10
2022-07-25T02:22:09.341Z,424.40
2022-07-25T02:24:41.042Z,422.97
2022-07-25T02:27:12.906Z,424.97
2022-07-25T02:29:44.525Z,425.40
2022-07-25T02:32:19.100Z,423.33
2022-07-25T02:34:50.687Z,422.53
2022-07-25T02:37:22.342Z,422.80
2022-07-25T02:39:53.973Z,421.97
2022-07-25T02:42:25.578Z,424.40
2022-07-25T02:44:57.145Z,424.50
2022-07-25T02:47:28.826Z,425.97
2022-07-25T02:50:00.413Z,425.17
2022-07-25T02:52:32.173Z,424.53
2022-07-25T02:55:09.094Z,424.63
2022-07-25T02:57:41.419Z,424.40
2022-07-25T03:00:15.215Z,427.10
2022-07-25T03:02:46.973Z,422.90
2022-07-25T03:05:18.668Z,424.63
2022-07-25T03:07:50.789Z,421.83
2022-07-25T03:10:22.522Z,424.60
2022-07-25T03:12:54.199Z,424.77
2022-07-25T03:15:25.790Z,422.00
2022-07-25T03:17:57.957Z,423.90
2022-07-25T03:20:29.514Z,421.57
2022-07-25T03:23:01.147Z,422.90
2022-07-25T03:25:32.830Z,422.83
2022-07-25T03:28:04.679Z,424.57
2022-07-25T03:30:36.328Z,424.90
2022-07-25T03:33:08.050Z,431.97
2022-07-25T03:35:39.651Z,427.33
2022-07-25T03:38:11.306Z,425.60
2022-07-25T03:40:42.943Z,425.93
2022-07-25T03:43:14.629Z,422.73
2022-07-25T03:45:46.245Z,423.53
2022-07-25T03:48:17.931Z,423.50
2022-07-25T03:50:49.585Z,424.70
2022-07-25T03:53:21.212Z,426.17
2022-07-25T03:55:52.779Z,423.00
2022-07-25T03:58:24.392Z,424.63
2022-07-25T04:00:56.011Z,428.07
2022-07-25T04:03:30.381Z,423.50
2022-07-25T04:06:02.040Z,424.73
2022-07-25T04:08:33.728Z,424.57
2022-07-25T04:11:05.510Z,423.70
2022-07-25T04:13:37.362Z,419.07
2022-07-25T04:16:14.629Z,422.37
2022-07-25T04:18:54.008Z,421.63
2022-07-25T04:21:26.817Z,422.40
2022-07-25T04:23:58.429Z,423.80
2022-07-25T04:26:30.052Z,420.43
2022-07-25T04:29:03.600Z,422.80
2022-07-25T04:31:35.240Z,420.48
2022-07-25T04:34:07.117Z,419.93
2022-07-25T04:36:39.043Z,422.37
2022-07-25T04:39:10.746Z,422.77
2022-07-25T04:41:42.417Z,421.80
2022-07-25T04:44:14.267Z,421.33
2022-07-25T04:46:45.861Z,423.40
2022-07-25T04:49:17.637Z,422.13
2022-07-25T04:51:49.322Z,425.20
2022-07-25T04:54:20.940Z,423.43
2022-07-25T04:56:52.537Z,424.33
2022-07-25T04:59:24.139Z,422.77
2022-07-25T05:01:55.820Z,424.03
2022-07-25T05:04:28.785Z,420.33
2022-07-25T05:07:01.602Z,422.80
2022-07-25T05:09:33.240Z,420.90
2022-07-25T05:12:04.964Z,425.97
2022-07-25T05:14:36.581Z,421.40
2022-07-25T05:17:08.463Z,423.20
2022-07-25T05:19:40.244Z,422.30
2022-07-25T05:22:14.570Z,423.17
2022-07-25T05:24:46.806Z,422.20
2022-07-25T05:27:18.472Z,423.00
2022-07-25T05:29:50.075Z,424.83
2022-07-25T05:32:21.731Z,424.17
2022-07-25T05:34:53.380Z,426.60
2022-07-25T05:37:25.000Z,424.73
2022-07-25T05:39:56.691Z,424.73
2022-07-25T05:42:28.685Z,427.17
2022-07-25T05:45:01.263Z,427.77
2022-07-25T05:47:32.893Z,426.40
2022-07-25T05:50:05.303Z,426.10
2022-07-25T05:52:36.925Z,430.07
2022-07-25T05:55:09.063Z,430.40
2022-07-25T05:57:40.999Z,433.03
2022-07-25T06:00:13.318Z,431.73
2022-07-25T06:02:45.154Z,430.07
2022-07-25T06:05:16.946Z,433.60
2022-07-25T06:07:48.563Z,431.93
2022-07-25T06:10:20.927Z,433.13
2022-07-25T06:12:53.255Z,436.53
2022-07-25T06:15:27.076Z,437.40
2022-07-25T06:17:59.319Z,435.20
2022-07-25T06:20:31.097Z,441.30
2022-07-25T06:23:04.825Z,439.83
2022-07-25T06:25:36.871Z,436.88
2022-07-25T06:28:10.516Z,442.30
2022-07-25T06:30:43.984Z,439.73
2022-07-25T06:33:15.662Z,442.23
2022-07-25T06:35:50.221Z,441.57
2022-07-25T06:38:21.888Z,439.60
2022-07-25T06:40:53.522Z,445.30
2022-07-25T06:43:26.184Z,441.17
2022-07-25T06:45:59.118Z,439.58
2022-07-25T06:48:30.798Z,442.80
2022-07-25T06:51:02.974Z,442.07
2022-07-25T06:53:34.603Z,444.40
2022-07-25T06:56:06.448Z,445.27
2022-07-25T06:58:38.110Z,448.13
2022-07-25T07:01:09.824Z,447.43
2022-07-25T07:03:41.972Z,445.23
2022-07-25T07:06:13.737Z,445.70
2022-07-25T07:08:45.335Z,449.67
2022-07-25T07:11:18.500Z,450.97
2022-07-25T07:13:50.087Z,448.47
2022-07-25T07:16:21.789Z,447.53
2022-07-25T07:18:53.421Z,446.10
2022-07-25T07:21:25.287Z,448.50
2022-07-25T07:23:57.950Z,448.17
2022-07-25T07:26:29.552Z,446.87
2022-07-25T07:29:02.975Z,445.57
2022-07-25T07:31:35.077Z,446.30
2022-07-25T07:34:07.071Z,449.37
2022-07-25T07:36:38.708Z,448.70
2022-07-25T07:39:13.294Z,448.17
2022-07-25T07:41:45.254Z,448.27
2022-07-25T07:44:16.896Z,446.13
2022-07-25T07:46:49.078Z,449.30
2022-07-25T07:49:20.787Z,451.57
2022-07-25T07:51:52.421Z,449.00
2022-07-25T07:54:42.525Z,446.70
2022-07-25T07:57:15.142Z,450.20
2022-07-25T07:59:46.866Z,446.57
2022-07-25T08:02:18.774Z,449.83
2022-07-25T08:04:50.381Z,445.80
2022-07-25T08:07:22.237Z,450.10
2022-07-25T08:09:53.854Z,448.33
2022-07-25T08:12:27.479Z,444.50
2022-07-25T08:14:59.164Z,445.53
2022-07-25T08:17:30.812Z,447.83
2022-07-25T08:20:27.931Z,445.23
2022-07-25T08:23:00.130Z,448.40
2022-07-25T08:25:31.853Z,447.37
2022-07-25T08:28:06.370Z,448.27
2022-07-25T08:30:39.488Z,444.80
2022-07-25T08:33:13.676Z,443.02
2022-07-25T08:35:54.611Z,445.50
2022-07-25T08:38:29.524Z,447.30
2022-07-25T08:41:02.995Z,445.70
2022-07-25T08:43:35.996Z,446.80
2022-07-25T08:46:08.553Z,446.70
2022-07-25T08:48:40.713Z,445.08
2022-07-25T08:51:12.461Z,446.92
2022-07-25T08:53:48.596Z,447.25
2022-07-25T08:56:21.609Z,446.88
2022-07-25T08:58:53.431Z,445.23
2022-07-25T09:01:25.086Z,449.60
2022-07-25T09:03:56.905Z,449.13
2022-07-25T09:06:28.532Z,448.48
2022-07-25T09:09:01.101Z,450.02
2022-07-25T09:11:35.479Z,445.67
2022-07-25T09:14:10.831Z,448.33
2022-07-25T09:16:45.560Z,445.98
2022-07-25T09:19:19.468Z,449.90
2022-07-25T09:22:06.414Z,454.77
2022-07-25T09:24:45.179Z,455.63
2022-07-25T09:27:18.211Z,461.45
2022-07-25T09:29:49.959Z,456.42
2022-07-25T09:32:22.834Z,463.42
2022-07-25T09:34:54.550Z,460.55
2022-07-25T09:37:27.096Z,460.27
2022-07-25T09:39:59.227Z,465.80
2022-07-25T09:42:32.777Z,473.23
2022-07-25T09:45:04.409Z,464.90
2022-07-25T09:47:38.459Z,472.45
2022-07-25T09:52:41.848Z,471.05
2022-07-25T09:55:15.720Z,475.85
2022-07-25T09:57:54.825Z,478.83
2022-07-25T10:00:29.138Z,470.75
2022-07-25T10:03:37.890Z,467.70
2022-07-25T10:06:34.576Z,465.48
2022-07-25T10:09:13.930Z,464.58
2022-07-25T10:12:04.369Z,467.30
2022-07-25T10:14:37.619Z,471.88
2022-07-25T10:17:19.963Z,458.17
2022-07-25T10:19:56.766Z,464.33
2022-07-25T10:22:57.781Z,464.02
2022-07-25T10:25:29.848Z,468.23
2022-07-25T10:28:09.892Z,458.75
2022-07-25T10:30:43.178Z,464.85
2022-07-25T10:33:18.231Z,452.30
2022-07-25T10:35:49.837Z,464.92
2022-07-25T10:38:28.194Z,468.38
2022-07-25T10:41:04.863Z,462.60
2022-07-25T10:43:38.219Z,465.55
2022-07-25T10:46:15.138Z,450.45
2022-07-25T10:48:58.048Z,459.55
2022-07-25T10:51:39.583Z,440.42
2022-07-25T10:54:17.957Z,470.85
2022-07-25T10:56:58.211Z,469.33
2022-07-25T10:59:35.895Z,463.20
2022-07-25T11:02:16.280Z,467.95
2022-07-25T11:05:03.231Z,476.52
2022-07-25T11:07:37.579Z,473.75
2022-07-25T11:10:10.462Z,471.48
2022-07-25T11:12:45.218Z,456.50
2022-07-25T11:15:21.331Z,473.40
2022-07-25T11:17:53.956Z,471.75
2022-07-25T11:20:25.960Z,473.85
2022-07-25T11:22:57.614Z,464.25
2022-07-25T11:25:29.201Z,476.85
2022-07-25T11:28:01.416Z,475.20
2022-07-25T11:30:33.069Z,482.42
2022-07-25T11:33:04.764Z,481.52
2022-07-25T11:35:38.554Z,475.83
2022-07-25T11:38:13.903Z,478.75
2022-07-25T11:40:46.579Z,470.05
2022-07-25T11:43:22.504Z,476.87
2022-07-25T11:46:02.942Z,475.70
2022-07-25T11:48:40.017Z,475.40
2022-07-25T11:51:18.837Z,468.58
2022-07-25T11:53:51.570Z,460.35
2022-07-25T11:56:41.951Z,467.70
2022-07-25T11:59:14.555Z,459.05
2022-07-25T12:01:47.521Z,467.30
2022-07-25T12:04:20.117Z,465.90
2022-07-25T12:06:53.922Z,483.85
2022-07-25T12:09:25.534Z,460.48
2022-07-25T12:12:03.880Z,470.98
2022-07-25T12:14:47.104Z,486.52
2022-07-25T12:17:21.921Z,468.65
2022-07-25T12:19:53.523Z,473.35
2022-07-25T12:22:25.127Z,477.92
2022-07-25T12:24:56.776Z,473.48
2022-07-25T12:27:28.415Z,465.60
2022-07-25T12:30:00.075Z,472.77
2022-07-25T12:32:31.943Z,465.55
2022-07-25T12:35:05.365Z,471.75
2022-07-25T12:37:37.571Z,471.33
2022-07-25T12:40:11.127Z,462.55
2022-07-25T12:42:43.993Z,457.48
2022-07-25T12:45:17.728Z,459.80
2022-07-25T12:50:21.167Z,468.38
2022-07-25T12:52:53.421Z,476.00
2022-07-25T12:55:25.182Z,471.88
2022-07-25T12:57:56.822Z,454.92
2022-07-25T13:00:28.770Z,477.85
2022-07-25T13:03:00.581Z,476.95
2022-07-25T13:05:32.316Z,474.90
2022-07-25T13:08:05.389Z,464.83
2022-07-25T13:10:37.061Z,460.13
2022-07-25T13:13:08.774Z,469.92
2022-07-25T13:15:40.620Z,464.83
2022-07-25T13:18:12.696Z,455.65
2022-07-25T13:20:44.314Z,470.00
2022-07-25T13:23:20.559Z,458.75
2022-07-25T13:25:52.607Z,466.98
2022-07-25T13:28:24.306Z,474.48
2022-07-25T13:30:56.171Z,471.38
2022-07-25T13:33:34.555Z,461.27
2022-07-25T13:36:06.520Z,476.60
2022-07-25T13:38:41.359Z,465.17
2022-07-25T13:41:14.055Z,462.45
2022-07-25T13:43:46.517Z,465.88
2022-07-25T13:46:19.378Z,460.17
2022-07-25T13:48:51.192Z,457.48
2022-07-25T13:51:22.920Z,468.15
2022-07-25T13:53:54.567Z,473.30
2022-07-25T13:56:26.286Z,466.98
2022-07-25T13:58:57.958Z,462.98
2022-07-25T14:01:29.916Z,466.95
2022-07-25T14:04:01.684Z,468.48
2022-07-25T14:06:34.415Z,461.77
2022-07-25T14:09:07.784Z,479.97
2022-07-25T14:14:15.802Z,468.35
2022-07-25T14:16:47.509Z,483.15
2022-07-25T14:19:19.267Z,463.48
2022-07-25T14:21:50.973Z,462.92
2022-07-25T14:24:22.723Z,457.77
2022-07-25T14:26:55.510Z,460.23
2022-07-25T14:29:30.450Z,458.85
2022-07-25T14:32:02.413Z,464.50
2022-07-25T14:34:35.126Z,462.02
2022-07-25T14:37:07.727Z,457.07
2022-07-25T14:39:40.059Z,461.05
2022-07-25T14:42:11.684Z,455.65
2022-07-25T14:44:43.283Z,456.33
2022-07-25T14:47:15.216Z,457.77
2022-07-25T14:49:47.036Z,466.20
2022-07-25T14:52:18.754Z,452.05
2022-07-25T14:54:50.397Z,472.70
2022-07-25T14:57:23.376Z,460.98
2022-07-25T14:59:58.075Z,461.60
2022-07-25T15:02:29.641Z,468.52
2022-07-25T15:05:01.398Z,455.92
2022-07-25T15:07:33.098Z,465.33
2022-07-25T15:10:05.306Z,462.30
2022-07-25T15:12:36.957Z,467.05
2022-07-25T15:15:08.814Z,471.25
2022-07-25T15:17:42.457Z,472.67
2022-07-25T15:20:16.229Z,464.25
2022-07-25T15:22:47.832Z,467.30
2022-07-25T15:25:59.669Z,476.08
2022-07-25T15:28:11.088Z,478.98
2022-07-25T15:30:43.144Z,471.38
2022-07-25T15:33:19.314Z,470.55
2022-07-25T15:35:51.451Z,475.40
2022-07-25T15:38:23.628Z,461.67
2022-07-25T15:40:55.256Z,469.20
2022-07-25T15:43:27.261Z,471.60
2022-07-25T15:45:59.060Z,479.67
2022-07-25T15:48:30.981Z,453.73
2022-07-25T15:51:05.508Z,471.40
2022-07-25T15:53:37.169Z,483.08
2022-07-25T15:56:10.536Z,465.50
2022-07-25T15:58:42.657Z,457.98
2022-07-25T16:01:14.794Z,474.88
2022-07-25T16:03:46.509Z,474.30
2022-07-25T16:06:20.772Z,461.15
2022-07-25T16:08:52.635Z,460.92
2022-07-25T16:11:30.012Z,461.05
2022-07-25T16:14:01.941Z,469.55
2022-07-25T16:16:35.161Z,466.73
2022-07-25T16:19:08.498Z,463.67
2022-07-25T16:24:12.597Z,470.05
2022-07-25T16:26:44.996Z,459.25
2022-07-25T16:29:16.712Z,469.45
2022-07-25T16:31:50.286Z,471.20
2022-07-25T16:34:25.788Z,466.00
2022-07-25T16:37:01.655Z,453.80
2022-07-25T16:39:33.380Z,454.67
2022-07-25T16:42:05.447Z,464.40
2022-07-25T16:44:37.099Z,468.23
2022-07-25T16:47:09.240Z,464.88
2022-07-25T16:49:40.903Z,456.05
2022-07-25T16:52:12.561Z,458.10
2022-07-25T16:54:46.018Z,461.77
2022-07-25T16:57:17.676Z,453.45
2022-07-25T16:59:50.480Z,462.92
2022-07-25T17:02:27.488Z,459.33
2022-07-25T17:05:00.725Z,456.33
2022-07-25T17:07:32.629Z,453.42
2022-07-25T17:10:04.559Z,469.80
2022-07-25T17:12:36.240Z,466.40
2022-07-25T17:15:08.352Z,466.83
2022-07-25T17:17:40.097Z,464.20
2022-07-25T17:20:11.974Z,469.85
2022-07-25T17:22:43.905Z,462.73
2022-07-25T17:25:15.562Z,449.13
2022-07-25T17:27:47.194Z,464.77
2022-07-25T17:30:18.850Z,457.85
2022-07-25T17:32:50.481Z,462.13
2022-07-25T17:35:22.055Z,456.42
2022-07-25T17:37:53.653Z,455.75
2022-07-25T17:40:25.422Z,458.23
2022-07-25T17:42:57.744Z,457.13
2022-07-25T17:45:29.501Z,459.65
2022-07-25T17:48:01.209Z,454.88
2022-07-25T17:50:33.102Z,469.25
2022-07-25T17:53:04.797Z,453.52
2022-07-25T17:55:44.341Z,463.63
2022-07-25T17:58:16.562Z,464.42
2022-07-25T18:00:48.165Z,446.90
2022-07-25T18:03:20.041Z,448.27
2022-07-25T18:05:53.782Z,459.35
2022-07-25T18:08:25.816Z,451.40
2022-07-25T18:10:57.436Z,456.50
2022-07-25T18:13:29.057Z,453.27
2022-07-25T18:16:00.672Z,453.80
2022-07-25T18:18:33.105Z,459.47
2022-07-25T18:21:04.893Z,460.93
2022-07-25T18:23:36.690Z,460.08
2022-07-25T18:26:08.977Z,460.20
2022-07-25T18:28:40.562Z,456.40
2022-07-25T18:31:12.407Z,455.90
2022-07-25T18:33:44.382Z,455.87
2022-07-25T18:36:16.099Z,460.77
2022-07-25T18:38:47.885Z,455.63
2022-07-25T18:41:30.878Z,450.58
2022-07-25T18:44:02.996Z,455.98
2022-07-25T18:46:37.294Z,455.50
2022-07-25T18:49:09.380Z,455.83
2022-07-25T18:54:14.746Z,447.13
2022-07-25T18:56:46.331Z,449.23
2022-07-25T18:59:18.081Z,455.50
2022-07-25T19:01:51.129Z,459.53
2022-07-25T19:04:22.947Z,446.95
2022-07-25T19:06:54.699Z,455.57
2022-07-25T19:09:26.664Z,448.93
2022-07-25T19:12:01.536Z,448.77
2022-07-25T19:14:35.643Z,452.37
2022-07-25T19:17:07.228Z,447.30
2022-07-25T19:19:38.973Z,450.00
2022-07-25T19:22:10.743Z,453.10
2022-07-25T19:24:46.107Z,455.07
2022-07-25T19:27:19.363Z,454.57
2022-07-25T19:29:51.139Z,450.45
2022-07-25T19:32:22.898Z,456.67
2022-07-25T19:34:54.538Z,450.97
2022-07-25T19:37:26.362Z,457.30
2022-07-25T19:40:01.232Z,455.92
2022-07-25T19:42:33.372Z,456.17
2022-07-25T19:45:05.527Z,460.07
2022-07-25T19:47:37.158Z,464.67
2022-07-25T19:50:09.066Z,456.67
2022-07-25T19:52:43.204Z,455.10
2022-07-25T19:55:15.409Z,450.93
2022-07-25T19:57:47.108Z,455.47
2022-07-25T20:00:18.877Z,454.13
2022-07-25T20:02:50.640Z,455.20
2022-07-25T20:05:22.755Z,455.50
2022-07-25T20:07:54.375Z,451.67
2022-07-25T20:10:29.082Z,457.00
2022-07-25T20:13:01.574Z,449.67
2022-07-25T20:15:33.376Z,453.03
2022-07-25T20:18:05.073Z,449.53
2022-07-25T20:20:36.830Z,451.53
2022-07-25T20:23:08.422Z,451.10
2022-07-25T20:25:40.100Z,456.30
2022-07-25T20:28:12.023Z,458.23
2022-07-25T20:30:43.861Z,451.77
2022-07-25T20:33:15.697Z,455.97
2022-07-25T20:35:47.397Z,460.40
2022-07-25T20:38:18.986Z,449.87
2022-07-25T20:40:53.095Z,452.50
2022-07-25T20:43:25.784Z,452.33
2022-07-25T20:48:30.860Z,449.00
2022-07-25T20:51:02.806Z,450.00
2022-07-25T20:53:34.668Z,452.23
2022-07-25T20:56:06.382Z,449.53
2022-07-25T20:58:40.834Z,451.60
2022-07-25T21:01:14.796Z,451.80
2022-07-25T21:06:17.983Z,449.60
2022-07-25T21:08:49.579Z,449.47
2022-07-25T21:11:21.573Z,447.13
2022-07-25T21:13:53.229Z,446.47
2022-07-25T21:16:25.905Z,449.73
2022-07-25T21:18:57.588Z,443.87
2022-07-25T21:21:29.370Z,447.00
2022-07-25T21:24:01.582Z,447.97
2022-07-25T21:26:33.322Z,451.43
2022-07-25T21:29:06.585Z,444.33
2022-07-25T21:31:41.353Z,443.30
2022-07-25T21:34:12.991Z,447.23
2022-07-25T21:36:44.680Z,448.07
2022-07-25T21:39:17.179Z,446.50
2022-07-25T21:41:48.834Z,446.67
2022-07-25T21:44:27.797Z,446.77
2022-07-25T21:46:59.398Z,449.60
2022-07-25T21:49:49.310Z,447.00
2022-07-25T21:52:34.855Z,447.50
2022-07-25T21:55:07.909Z,449.43
2022-07-25T21:57:39.538Z,446.37
2022-07-25T22:00:12.904Z,446.83
2022-07-25T22:02:47.332Z,447.00
2022-07-25T22:05:19.322Z,445.80
2022-07-25T22:07:51.859Z,444.13
2022-07-25T22:10:23.531Z,444.73
2022-07-25T22:12:55.167Z,442.33
2022-07-25T22:15:28.042Z,444.93
2022-07-25T22:17:59.694Z,446.37
2022-07-25T22:20:31.533Z,447.60
2022-07-25T22:23:03.391Z,445.67
2022-07-25T22:25:34.981Z,449.17
2022-07-25T22:28:06.635Z,449.93
2022-07-25T22:30:44.872Z,444.93
2022-07-25T22:33:16.506Z,446.57
2022-07-25T22:35:48.465Z,445.23
2022-07-25T22:38:20.064Z,446.43
2022-07-25T22:40:51.791Z,445.67
2022-07-25T22:43:23.889Z,446.67
2022-07-25T22:46:15.644Z,443.93
2022-07-25T22:48:47.645Z,443.50
2022-07-25T22:51:19.276Z,444.33
2022-07-25T22:53:50.886Z,443.53
2022-07-25T22:56:22.569Z,444.83
2022-07-25T22:58:54.295Z,446.10
2022-07-25T23:01:26.024Z,445.27
2022-07-25T23:03:57.739Z,444.10
2022-07-25T23:06:29.425Z,445.70
2022-07-25T23:09:01.051Z,448.20
2022-07-25T23:11:36.106Z,443.93
2022-07-25T23:14:07.971Z,448.03
2022-07-25T23:16:39.702Z,442.20
2022-07-25T23:19:14.385Z,443.47
2022-07-25T23:21:45.990Z,442.47
2022-07-25T23:24:17.603Z,442.10
2022-07-25T23:26:49.210Z,445.67
2022-07-25T23:29:25.030Z,443.47
2022-07-25T23:31:56.713Z,445.63
2022-07-25T23:34:28.352Z,439.37
2022-07-25T23:37:01.588Z,444.20
2022-07-25T23:39:33.495Z,444.25
2022-07-25T23:42:05.141Z,442.37
2022-07-25T23:44:36.731Z,443.07
2022-07-25T23:47:10.179Z,441.33
2022-07-25T23:49:42.598Z,442.83
2022-07-25T23:52:14.285Z,444.33
2022-07-25T23:54:47.027Z,441.60
2022-07-25T23:57:18.858Z,282.13
2022-07-25T23:59:50.513Z,18.98
